sensor_id;sensor_type;location;lat;lon;timestamp;P1;durP1;ratioP1;P2;durP2;ratioP2
60867;SDS011;46702;48.370;10.794;2023-10-13T00:01:53;4.38;;;3.20;;
60867;SDS011;46702;48.370;10.794;2023-10-13T00:04:19;5.25;;;3.13;;
60867;SDS011;46702;48.370;10.794;2023-10-13T00:06:56;5.13;;;2.90;;
60867;SDS011;46702;48.370;10.794;2023-10-13T00:09:22;5.65;;;3.38;;
60867;SDS011;46702;48.370;10.794;2023-10-13T00:11:57;5.63;;;2.88;;
60867;SDS011;46702;48.370;10.794;2023-10-13T00:14:23;4.35;;;3.35;;
60867;SDS011;46702;48.370;10.794;2023-10-13T00:16:58;5.97;;;2.95;;
60867;SDS011;46702;48.370;10.794;2023-10-13T00:19:30;5.75;;;3.20;;
60867;SDS011;46702;48.370;10.794;2023-10-13T00:22:24;5.88;;;3.10;;
60867;SDS011;46702;48.370;10.794;2023-10-13T00:24:49;5.57;;;2.80;;
60867;SDS011;46702;48.370;10.794;2023-10-13T00:27:19;9.13;;;3.25;;
60867;SDS011;46702;48.370;10.794;2023-10-13T00:29:56;5.57;;;2.83;;
60867;SDS011;46702;48.370;10.794;2023-10-13T00:32:45;4.20;;;2.58;;
60867;SDS011;46702;48.370;10.794;2023-10-13T00:35:16;5.22;;;2.72;;
60867;SDS011;46702;48.370;10.794;2023-10-13T00:38:00;5.05;;;2.90;;
60867;SDS011;46702;48.370;10.794;2023-10-13T00:43:07;4.82;;;2.75;;
60867;SDS011;46702;48.370;10.794;2023-10-13T00:45:45;4.75;;;3.03;;
60867;SDS011;46702;48.370;10.794;2023-10-13T00:48:31;7.57;;;3.17;;
60867;SDS011;46702;48.370;10.794;2023-10-13T00:51:00;7.88;;;4.32;;
60867;SDS011;46702;48.370;10.794;2023-10-13T00:53:32;5.15;;;3.00;;
60867;SDS011;46702;48.370;10.794;2023-10-13T00:56:01;5.45;;;3.30;;
60867;SDS011;46702;48.370;10.794;2023-10-13T00:58:48;5.05;;;2.92;;
60867;SDS011;46702;48.370;10.794;2023-10-13T01:01:17;10.48;;;3.00;;
60867;SDS011;46702;48.370;10.794;2023-10-13T01:03:47;5.32;;;2.90;;
60867;SDS011;46702;48.370;10.794;2023-10-13T01:06:21;5.32;;;2.45;;
60867;SDS011;46702;48.370;10.794;2023-10-13T01:08:56;4.80;;;3.50;;
60867;SDS011;46702;48.370;10.794;2023-10-13T01:11:25;4.88;;;2.95;;
60867;SDS011;46702;48.370;10.794;2023-10-13T01:13:54;4.57;;;2.65;;
60867;SDS011;46702;48.370;10.794;2023-10-13T01:16:22;10.45;;;3.30;;
60867;SDS011;46702;48.370;10.794;2023-10-13T01:18:51;3.88;;;3.03;;
60867;SDS011;46702;48.370;10.794;2023-10-13T01:21:18;4.85;;;3.13;;
60867;SDS011;46702;48.370;10.794;2023-10-13T01:23:52;6.07;;;2.63;;
60867;SDS011;46702;48.370;10.794;2023-10-13T01:26:19;4.10;;;3.47;;
60867;SDS011;46702;48.370;10.794;2023-10-13T01:28:51;4.78;;;3.25;;
60867;SDS011;46702;48.370;10.794;2023-10-13T01:31:19;3.55;;;2.55;;
60867;SDS011;46702;48.370;10.794;2023-10-13T01:34:02;6.03;;;2.80;;
60867;SDS011;46702;48.370;10.794;2023-10-13T01:36:28;5.10;;;2.95;;
60867;SDS011;46702;48.370;10.794;2023-10-13T01:39:00;4.97;;;2.75;;
60867;SDS011;46702;48.370;10.794;2023-10-13T01:41:26;4.15;;;3.00;;
60867;SDS011;46702;48.370;10.794;2023-10-13T01:43:54;5.25;;;2.80;;
60867;SDS011;46702;48.370;10.794;2023-10-13T01:46:22;6.03;;;3.03;;
60867;SDS011;46702;48.370;10.794;2023-10-13T01:48:47;7.22;;;3.20;;
60867;SDS011;46702;48.370;10.794;2023-10-13T01:51:13;5.40;;;3.05;;
60867;SDS011;46702;48.370;10.794;2023-10-13T01:53:39;9.13;;;3.20;;
60867;SDS011;46702;48.370;10.794;2023-10-13T01:56:07;5.43;;;3.40;;
60867;SDS011;46702;48.370;10.794;2023-10-13T01:58:38;5.75;;;2.80;;
60867;SDS011;46702;48.370;10.794;2023-10-13T02:01:08;3.83;;;3.05;;
60867;SDS011;46702;48.370;10.794;2023-10-13T02:03:36;7.00;;;3.00;;
60867;SDS011;46702;48.370;10.794;2023-10-13T02:06:10;5.40;;;2.92;;
60867;SDS011;46702;48.370;10.794;2023-10-13T02:08:42;8.30;;;3.00;;
60867;SDS011;46702;48.370;10.794;2023-10-13T02:11:08;7.55;;;3.17;;
60867;SDS011;46702;48.370;10.794;2023-10-13T02:13:34;6.75;;;2.50;;
60867;SDS011;46702;48.370;10.794;2023-10-13T02:16:15;3.85;;;2.95;;
60867;SDS011;46702;48.370;10.794;2023-10-13T02:18:45;6.70;;;2.97;;
60867;SDS011;46702;48.370;10.794;2023-10-13T02:21:16;3.58;;;2.80;;
60867;SDS011;46702;48.370;10.794;2023-10-13T02:23:42;7.70;;;2.80;;
60867;SDS011;46702;48.370;10.794;2023-10-13T02:26:13;5.30;;;2.60;;
60867;SDS011;46702;48.370;10.794;2023-10-13T02:28:55;7.70;;;2.97;;
60867;SDS011;46702;48.370;10.794;2023-10-13T02:31:26;4.90;;;2.80;;
60867;SDS011;46702;48.370;10.794;2023-10-13T02:33:52;8.30;;;3.13;;
60867;SDS011;46702;48.370;10.794;2023-10-13T02:36:18;5.50;;;2.80;;
60867;SDS011;46702;48.370;10.794;2023-10-13T02:39:01;6.82;;;2.90;;
60867;SDS011;46702;48.370;10.794;2023-10-13T02:41:32;4.90;;;2.70;;
60867;SDS011;46702;48.370;10.794;2023-10-13T02:44:00;6.28;;;3.00;;
60867;SDS011;46702;48.370;10.794;2023-10-13T02:46:26;4.07;;;2.83;;
60867;SDS011;46702;48.370;10.794;2023-10-13T02:48:54;5.97;;;2.85;;
60867;SDS011;46702;48.370;10.794;2023-10-13T02:51:22;5.80;;;2.97;;
60867;SDS011;46702;48.370;10.794;2023-10-13T02:53:56;4.85;;;3.25;;
60867;SDS011;46702;48.370;10.794;2023-10-13T02:56:28;4.85;;;2.80;;
60867;SDS011;46702;48.370;10.794;2023-10-13T02:58:54;5.85;;;3.15;;
60867;SDS011;46702;48.370;10.794;2023-10-13T03:01:29;5.45;;;2.58;;
60867;SDS011;46702;48.370;10.794;2023-10-13T03:03:58;6.82;;;2.80;;
60867;SDS011;46702;48.370;10.794;2023-10-13T03:06:25;4.80;;;3.00;;
60867;SDS011;46702;48.370;10.794;2023-10-13T03:09:01;3.88;;;3.50;;
60867;SDS011;46702;48.370;10.794;2023-10-13T03:11:40;6.70;;;2.83;;
60867;SDS011;46702;48.370;10.794;2023-10-13T03:14:13;5.40;;;3.20;;
60867;SDS011;46702;48.370;10.794;2023-10-13T03:16:49;4.80;;;2.60;;
60867;SDS011;46702;48.370;10.794;2023-10-13T03:19:16;7.78;;;2.38;;
60867;SDS011;46702;48.370;10.794;2023-10-13T03:21:44;4.28;;;2.38;;
60867;SDS011;46702;48.370;10.794;2023-10-13T03:24:11;8.82;;;3.65;;
60867;SDS011;46702;48.370;10.794;2023-10-13T03:26:38;6.07;;;2.95;;
60867;SDS011;46702;48.370;10.794;2023-10-13T03:29:09;6.53;;;3.17;;
60867;SDS011;46702;48.370;10.794;2023-10-13T03:31:39;4.35;;;2.60;;
60867;SDS011;46702;48.370;10.794;2023-10-13T03:34:05;4.45;;;2.78;;
60867;SDS011;46702;48.370;10.794;2023-10-13T03:36:34;5.65;;;3.45;;
60867;SDS011;46702;48.370;10.794;2023-10-13T03:39:21;5.68;;;2.72;;
60867;SDS011;46702;48.370;10.794;2023-10-13T03:41:53;5.75;;;2.80;;
60867;SDS011;46702;48.370;10.794;2023-10-13T03:44:19;4.80;;;2.50;;
60867;SDS011;46702;48.370;10.794;2023-10-13T03:46:45;4.93;;;2.75;;
60867;SDS011;46702;48.370;10.794;2023-10-13T03:49:14;5.23;;;2.70;;
60867;SDS011;46702;48.370;10.794;2023-10-13T03:51:45;6.30;;;2.92;;
60867;SDS011;46702;48.370;10.794;2023-10-13T03:54:13;5.30;;;2.83;;
60867;SDS011;46702;48.370;10.794;2023-10-13T03:56:41;3.58;;;2.33;;
60867;SDS011;46702;48.370;10.794;2023-10-13T03:59:09;4.35;;;2.83;;
60867;SDS011;46702;48.370;10.794;2023-10-13T04:01:42;6.45;;;2.78;;
60867;SDS011;46702;48.370;10.794;2023-10-13T04:04:08;4.22;;;2.53;;
60867;SDS011;46702;48.370;10.794;2023-10-13T04:06:36;7.40;;;2.80;;
60867;SDS011;46702;48.370;10.794;2023-10-13T04:09:16;8.55;;;2.83;;
60867;SDS011;46702;48.370;10.794;2023-10-13T04:11:57;3.45;;;2.90;;
60867;SDS011;46702;48.370;10.794;2023-10-13T04:14:27;7.28;;;3.67;;
60867;SDS011;46702;48.370;10.794;2023-10-13T04:17:12;6.32;;;3.72;;
60867;SDS011;46702;48.370;10.794;2023-10-13T04:19:40;4.38;;;3.58;;
60867;SDS011;46702;48.370;10.794;2023-10-13T04:22:25;4.28;;;3.58;;
60867;SDS011;46702;48.370;10.794;2023-10-13T04:25:28;8.07;;;3.50;;
60867;SDS011;46702;48.370;10.794;2023-10-13T04:28:13;4.78;;;3.20;;
60867;SDS011;46702;48.370;10.794;2023-10-13T04:33:28;5.68;;;3.40;;
60867;SDS011;46702;48.370;10.794;2023-10-13T04:38:38;10.63;;;3.33;;
60867;SDS011;46702;48.370;10.794;2023-10-13T04:41:38;8.20;;;3.45;;
60867;SDS011;46702;48.370;10.794;2023-10-13T04:44:07;5.78;;;3.15;;
60867;SDS011;46702;48.370;10.794;2023-10-13T04:46:55;5.10;;;3.20;;
60867;SDS011;46702;48.370;10.794;2023-10-13T04:49:25;7.68;;;2.90;;
60867;SDS011;46702;48.370;10.794;2023-10-13T04:51:53;4.70;;;2.70;;
60867;SDS011;46702;48.370;10.794;2023-10-13T04:54:31;4.97;;;3.22;;
60867;SDS011;46702;48.370;10.794;2023-10-13T04:57:21;6.80;;;2.80;;
60867;SDS011;46702;48.370;10.794;2023-10-13T04:59:58;4.03;;;2.88;;
60867;SDS011;46702;48.370;10.794;2023-10-13T05:02:57;5.85;;;3.03;;
60867;SDS011;46702;48.370;10.794;2023-10-13T05:08:10;5.53;;;3.22;;
60867;SDS011;46702;48.370;10.794;2023-10-13T05:10:55;4.80;;;3.35;;
60867;SDS011;46702;48.370;10.794;2023-10-13T05:13:46;5.93;;;2.78;;
60867;SDS011;46702;48.370;10.794;2023-10-13T05:16:30;5.75;;;3.10;;
60867;SDS011;46702;48.370;10.794;2023-10-13T05:19:14;5.43;;;3.22;;
60867;SDS011;46702;48.370;10.794;2023-10-13T05:21:58;5.65;;;3.05;;
60867;SDS011;46702;48.370;10.794;2023-10-13T05:24:42;5.75;;;3.25;;
60867;SDS011;46702;48.370;10.794;2023-10-13T05:27:26;5.55;;;3.05;;
60867;SDS011;46702;48.370;10.794;2023-10-13T05:30:10;9.38;;;3.65;;
60867;SDS011;46702;48.370;10.794;2023-10-13T05:32:58;5.85;;;3.63;;
60867;SDS011;46702;48.370;10.794;2023-10-13T05:35:42;4.72;;;2.92;;
60867;SDS011;46702;48.370;10.794;2023-10-13T05:38:26;7.18;;;2.95;;
60867;SDS011;46702;48.370;10.794;2023-10-13T05:41:10;7.35;;;3.25;;
60867;SDS011;46702;48.370;10.794;2023-10-13T05:43:55;7.25;;;3.30;;
60867;SDS011;46702;48.370;10.794;2023-10-13T05:46:39;6.07;;;3.10;;
60867;SDS011;46702;48.370;10.794;2023-10-13T05:49:05;7.85;;;3.15;;
60867;SDS011;46702;48.370;10.794;2023-10-13T05:51:34;5.55;;;3.40;;
60867;SDS011;46702;48.370;10.794;2023-10-13T05:54:12;5.70;;;2.90;;
60867;SDS011;46702;48.370;10.794;2023-10-13T05:56:42;7.30;;;3.40;;
60867;SDS011;46702;48.370;10.794;2023-10-13T05:59:27;8.32;;;3.60;;
60867;SDS011;46702;48.370;10.794;2023-10-13T06:02:12;6.43;;;3.30;;
60867;SDS011;46702;48.370;10.794;2023-10-13T06:04:57;4.78;;;2.90;;
60867;SDS011;46702;48.370;10.794;2023-10-13T06:07:41;8.18;;;3.35;;
60867;SDS011;46702;48.370;10.794;2023-10-13T06:10:25;5.95;;;3.17;;
60867;SDS011;46702;48.370;10.794;2023-10-13T06:13:09;6.18;;;3.40;;
60867;SDS011;46702;48.370;10.794;2023-10-13T06:15:53;5.78;;;3.03;;
60867;SDS011;46702;48.370;10.794;2023-10-13T06:18:37;5.85;;;2.80;;
60867;SDS011;46702;48.370;10.794;2023-10-13T06:21:21;5.70;;;3.08;;
60867;SDS011;46702;48.370;10.794;2023-10-13T06:24:06;6.15;;;3.58;;
60867;SDS011;46702;48.370;10.794;2023-10-13T06:26:51;5.60;;;3.13;;
60867;SDS011;46702;48.370;10.794;2023-10-13T06:29:35;4.88;;;2.80;;
60867;SDS011;46702;48.370;10.794;2023-10-13T06:32:01;6.32;;;2.65;;
60867;SDS011;46702;48.370;10.794;2023-10-13T06:34:30;7.93;;;3.45;;
60867;SDS011;46702;48.370;10.794;2023-10-13T06:37:12;9.25;;;3.35;;
60867;SDS011;46702;48.370;10.794;2023-10-13T06:40:10;4.45;;;3.20;;
60867;SDS011;46702;48.370;10.794;2023-10-13T06:42:46;6.72;;;3.00;;
60867;SDS011;46702;48.370;10.794;2023-10-13T06:45:12;4.70;;;2.90;;
60867;SDS011;46702;48.370;10.794;2023-10-13T06:47:38;10.85;;;3.90;;
60867;SDS011;46702;48.370;10.794;2023-10-13T06:52:41;6.72;;;3.03;;
60867;SDS011;46702;48.370;10.794;2023-10-13T06:55:07;7.13;;;3.60;;
60867;SDS011;46702;48.370;10.794;2023-10-13T06:57:35;5.15;;;2.92;;
60867;SDS011;46702;48.370;10.794;2023-10-13T07:00:01;4.72;;;2.88;;
60867;SDS011;46702;48.370;10.794;2023-10-13T07:02:32;5.60;;;3.10;;
60867;SDS011;46702;48.370;10.794;2023-10-13T07:04:59;4.65;;;2.95;;
60867;SDS011;46702;48.370;10.794;2023-10-13T07:07:36;4.32;;;2.97;;
60867;SDS011;46702;48.370;10.794;2023-10-13T07:10:07;9.00;;;3.97;;
60867;SDS011;46702;48.370;10.794;2023-10-13T07:12:37;9.85;;;3.15;;
60867;SDS011;46702;48.370;10.794;2023-10-13T07:15:09;8.38;;;3.70;;
60867;SDS011;46702;48.370;10.794;2023-10-13T07:17:47;5.95;;;3.15;;
60867;SDS011;46702;48.370;10.794;2023-10-13T07:20:19;7.35;;;3.30;;
60867;SDS011;46702;48.370;10.794;2023-10-13T07:22:59;8.15;;;3.65;;
60867;SDS011;46702;48.370;10.794;2023-10-13T07:25:28;7.15;;;3.17;;
60867;SDS011;46702;48.370;10.794;2023-10-13T07:27:58;5.80;;;2.92;;
60867;SDS011;46702;48.370;10.794;2023-10-13T07:30:33;7.82;;;2.90;;
60867;SDS011;46702;48.370;10.794;2023-10-13T07:33:14;5.53;;;3.03;;
60867;SDS011;46702;48.370;10.794;2023-10-13T07:35:45;6.60;;;2.90;;
60867;SDS011;46702;48.370;10.794;2023-10-13T07:38:16;4.15;;;3.15;;
60867;SDS011;46702;48.370;10.794;2023-10-13T07:40:46;7.07;;;3.08;;
60867;SDS011;46702;48.370;10.794;2023-10-13T07:43:18;6.25;;;3.00;;
60867;SDS011;46702;48.370;10.794;2023-10-13T07:45:47;5.85;;;2.40;;
60867;SDS011;46702;48.370;10.794;2023-10-13T07:48:17;6.55;;;2.70;;
60867;SDS011;46702;48.370;10.794;2023-10-13T07:50:45;7.35;;;3.42;;
60867;SDS011;46702;48.370;10.794;2023-10-13T07:53:44;7.72;;;3.00;;
60867;SDS011;46702;48.370;10.794;2023-10-13T07:56:13;3.17;;;2.20;;
60867;SDS011;46702;48.370;10.794;2023-10-13T07:58:43;8.05;;;2.42;;
60867;SDS011;46702;48.370;10.794;2023-10-13T08:01:25;6.43;;;2.60;;
60867;SDS011;46702;48.370;10.794;2023-10-13T08:03:51;6.57;;;2.70;;
60867;SDS011;46702;48.370;10.794;2023-10-13T08:06:40;6.03;;;2.83;;
60867;SDS011;46702;48.370;10.794;2023-10-13T08:09:07;4.13;;;2.30;;
60867;SDS011;46702;48.370;10.794;2023-10-13T08:11:34;6.30;;;2.30;;
60867;SDS011;46702;48.370;10.794;2023-10-13T08:16:37;4.40;;;2.30;;
60867;SDS011;46702;48.370;10.794;2023-10-13T08:19:11;4.65;;;2.03;;
60867;SDS011;46702;48.370;10.794;2023-10-13T08:21:41;8.77;;;2.80;;
60867;SDS011;46702;48.370;10.794;2023-10-13T08:24:15;6.43;;;2.50;;
60867;SDS011;46702;48.370;10.794;2023-10-13T08:26:41;6.97;;;2.70;;
60867;SDS011;46702;48.370;10.794;2023-10-13T08:29:23;4.80;;;2.38;;
60867;SDS011;46702;48.370;10.794;2023-10-13T08:31:55;7.32;;;2.53;;
60867;SDS011;46702;48.370;10.794;2023-10-13T08:34:30;5.78;;;2.58;;
60867;SDS011;46702;48.370;10.794;2023-10-13T08:37:16;4.88;;;3.15;;
60867;SDS011;46702;48.370;10.794;2023-10-13T08:39:45;4.85;;;2.55;;
60867;SDS011;46702;48.370;10.794;2023-10-13T08:42:26;5.00;;;2.08;;
60867;SDS011;46702;48.370;10.794;2023-10-13T08:45:04;5.15;;;2.20;;
60867;SDS011;46702;48.370;10.794;2023-10-13T08:47:45;6.63;;;2.22;;
60867;SDS011;46702;48.370;10.794;2023-10-13T08:50:34;5.97;;;2.35;;
60867;SDS011;46702;48.370;10.794;2023-10-13T08:53:14;5.43;;;2.03;;
60867;SDS011;46702;48.370;10.794;2023-10-13T08:56:02;5.32;;;2.00;;
60867;SDS011;46702;48.370;10.794;2023-10-13T08:58:38;3.83;;;2.10;;
60867;SDS011;46702;48.370;10.794;2023-10-13T09:01:27;2.55;;;1.60;;
60867;SDS011;46702;48.370;10.794;2023-10-13T09:06:49;1.67;;;1.55;;
60867;SDS011;46702;48.370;10.794;2023-10-13T09:15:05;3.97;;;2.00;;
60867;SDS011;46702;48.370;10.794;2023-10-13T09:17:56;4.35;;;1.60;;
60867;SDS011;46702;48.370;10.794;2023-10-13T09:20:40;4.43;;;1.88;;
60867;SDS011;46702;48.370;10.794;2023-10-13T09:23:10;3.55;;;2.10;;
60867;SDS011;46702;48.370;10.794;2023-10-13T09:25:50;5.85;;;1.90;;
60867;SDS011;46702;48.370;10.794;2023-10-13T09:28:27;4.57;;;1.77;;
60867;SDS011;46702;48.370;10.794;2023-10-13T09:31:02;4.15;;;1.83;;
60867;SDS011;46702;48.370;10.794;2023-10-13T09:33:32;4.65;;;2.00;;
60867;SDS011;46702;48.370;10.794;2023-10-13T09:36:00;4.25;;;1.70;;
60867;SDS011;46702;48.370;10.794;2023-10-13T09:38:29;4.68;;;1.98;;
60867;SDS011;46702;48.370;10.794;2023-10-13T09:40:58;4.55;;;2.30;;
60867;SDS011;46702;48.370;10.794;2023-10-13T09:43:27;5.07;;;1.85;;
60867;SDS011;46702;48.370;10.794;2023-10-13T09:45:59;4.55;;;2.35;;
60867;SDS011;46702;48.370;10.794;2023-10-13T09:48:45;3.00;;;1.80;;
60867;SDS011;46702;48.370;10.794;2023-10-13T09:51:15;5.38;;;1.70;;
60867;SDS011;46702;48.370;10.794;2023-10-13T09:53:56;6.38;;;1.85;;
60867;SDS011;46702;48.370;10.794;2023-10-13T09:56:42;3.92;;;1.50;;
60867;SDS011;46702;48.370;10.794;2023-10-13T09:59:22;3.95;;;1.92;;
60867;SDS011;46702;48.370;10.794;2023-10-13T10:02:00;5.45;;;1.60;;
60867;SDS011;46702;48.370;10.794;2023-10-13T10:04:33;6.45;;;2.20;;
60867;SDS011;46702;48.370;10.794;2023-10-13T10:07:25;6.28;;;2.00;;
60867;SDS011;46702;48.370;10.794;2023-10-13T10:09:56;5.83;;;1.97;;
60867;SDS011;46702;48.370;10.794;2023-10-13T10:12:42;9.02;;;2.10;;
60867;SDS011;46702;48.370;10.794;2023-10-13T10:15:36;2.83;;;1.75;;
60867;SDS011;46702;48.370;10.794;2023-10-13T10:18:18;4.45;;;1.60;;
60867;SDS011;46702;48.370;10.794;2023-10-13T10:23:26;4.43;;;1.60;;
60867;SDS011;46702;48.370;10.794;2023-10-13T10:25:54;5.18;;;1.88;;
60867;SDS011;46702;48.370;10.794;2023-10-13T10:28:38;6.68;;;1.95;;
60867;SDS011;46702;48.370;10.794;2023-10-13T10:31:07;7.13;;;2.28;;
60867;SDS011;46702;48.370;10.794;2023-10-13T10:33:46;5.57;;;1.90;;
60867;SDS011;46702;48.370;10.794;2023-10-13T10:36:15;5.40;;;1.70;;
60867;SDS011;46702;48.370;10.794;2023-10-13T10:38:56;4.75;;;1.88;;
60867;SDS011;46702;48.370;10.794;2023-10-13T10:41:26;3.72;;;1.58;;
60867;SDS011;46702;48.370;10.794;2023-10-13T10:44:11;4.95;;;1.80;;
60867;SDS011;46702;48.370;10.794;2023-10-13T10:46:56;4.97;;;1.60;;
60867;SDS011;46702;48.370;10.794;2023-10-13T10:49:26;5.80;;;2.05;;
60867;SDS011;46702;48.370;10.794;2023-10-13T10:52:01;5.35;;;1.85;;
60867;SDS011;46702;48.370;10.794;2023-10-13T10:54:29;3.72;;;1.45;;
60867;SDS011;46702;48.370;10.794;2023-10-13T10:56:57;5.47;;;2.08;;
60867;SDS011;46702;48.370;10.794;2023-10-13T10:59:35;4.18;;;1.58;;
60867;SDS011;46702;48.370;10.794;2023-10-13T11:02:05;6.45;;;1.80;;
60867;SDS011;46702;48.370;10.794;2023-10-13T11:04:32;2.50;;;1.35;;
60867;SDS011;46702;48.370;10.794;2023-10-13T11:07:06;3.70;;;1.65;;
60867;SDS011;46702;48.370;10.794;2023-10-13T11:09:33;7.75;;;3.85;;
60867;SDS011;46702;48.370;10.794;2023-10-13T11:14:31;3.55;;;1.65;;
60867;SDS011;46702;48.370;10.794;2023-10-13T11:16:57;6.55;;;1.67;;
60867;SDS011;46702;48.370;10.794;2023-10-13T11:19:34;5.15;;;1.30;;
60867;SDS011;46702;48.370;10.794;2023-10-13T11:22:14;1.98;;;1.20;;
60867;SDS011;46702;48.370;10.794;2023-10-13T11:25:07;7.75;;;2.00;;
60867;SDS011;46702;48.370;10.794;2023-10-13T11:27:39;4.35;;;1.83;;
60867;SDS011;46702;48.370;10.794;2023-10-13T11:30:14;4.43;;;1.70;;
60867;SDS011;46702;48.370;10.794;2023-10-13T11:32:45;5.13;;;1.50;;
60867;SDS011;46702;48.370;10.794;2023-10-13T11:35:12;6.00;;;2.00;;
60867;SDS011;46702;48.370;10.794;2023-10-13T11:37:47;7.32;;;2.08;;
60867;SDS011;46702;48.370;10.794;2023-10-13T11:40:34;6.18;;;2.20;;
60867;SDS011;46702;48.370;10.794;2023-10-13T11:43:12;4.32;;;2.03;;
60867;SDS011;46702;48.370;10.794;2023-10-13T11:45:41;3.08;;;1.38;;
60867;SDS011;46702;48.370;10.794;2023-10-13T11:48:21;4.13;;;1.70;;
60867;SDS011;46702;48.370;10.794;2023-10-13T11:50:59;4.28;;;1.65;;
60867;SDS011;46702;48.370;10.794;2023-10-13T11:53:25;6.18;;;1.77;;
60867;SDS011;46702;48.370;10.794;2023-10-13T11:55:53;8.10;;;1.70;;
60867;SDS011;46702;48.370;10.794;2023-10-13T11:58:20;5.45;;;2.10;;
60867;SDS011;46702;48.370;10.794;2023-10-13T12:00:45;4.10;;;1.70;;
60867;SDS011;46702;48.370;10.794;2023-10-13T12:03:31;6.18;;;1.70;;
60867;SDS011;46702;48.370;10.794;2023-10-13T12:06:15;7.50;;;2.10;;
60867;SDS011;46702;48.370;10.794;2023-10-13T12:08:47;6.25;;;2.08;;
60867;SDS011;46702;48.370;10.794;2023-10-13T12:11:17;4.32;;;1.63;;
60867;SDS011;46702;48.370;10.794;2023-10-13T12:13:55;5.20;;;2.10;;
60867;SDS011;46702;48.370;10.794;2023-10-13T12:16:21;4.45;;;1.80;;
60867;SDS011;46702;48.370;10.794;2023-10-13T12:18:47;4.10;;;1.70;;
60867;SDS011;46702;48.370;10.794;2023-10-13T12:21:21;7.57;;;2.28;;
60867;SDS011;46702;48.370;10.794;2023-10-13T12:23:47;6.68;;;1.95;;
60867;SDS011;46702;48.370;10.794;2023-10-13T12:26:12;5.70;;;1.92;;
60867;SDS011;46702;48.370;10.794;2023-10-13T12:28:45;3.05;;;1.60;;
60867;SDS011;46702;48.370;10.794;2023-10-13T12:31:16;4.00;;;1.85;;
60867;SDS011;46702;48.370;10.794;2023-10-13T12:33:43;2.13;;;1.40;;
60867;SDS011;46702;48.370;10.794;2023-10-13T12:36:12;3.78;;;1.90;;
60867;SDS011;46702;48.370;10.794;2023-10-13T12:38:47;3.63;;;1.50;;
60867;SDS011;46702;48.370;10.794;2023-10-13T12:41:16;4.82;;;1.92;;
60867;SDS011;46702;48.370;10.794;2023-10-13T12:44:05;4.75;;;1.75;;
60867;SDS011;46702;48.370;10.794;2023-10-13T12:46:51;4.40;;;2.25;;
60867;SDS011;46702;48.370;10.794;2023-10-13T12:49:36;4.72;;;1.98;;
60867;SDS011;46702;48.370;10.794;2023-10-13T12:52:08;2.53;;;1.50;;
60867;SDS011;46702;48.370;10.794;2023-10-13T12:54:54;6.18;;;2.17;;
60867;SDS011;46702;48.370;10.794;2023-10-13T12:57:32;5.45;;;2.08;;
60867;SDS011;46702;48.370;10.794;2023-10-13T12:59:58;3.90;;;1.98;;
60867;SDS011;46702;48.370;10.794;2023-10-13T13:02:24;3.90;;;1.88;;
60867;SDS011;46702;48.370;10.794;2023-10-13T13:04:51;4.03;;;2.03;;
60867;SDS011;46702;48.370;10.794;2023-10-13T13:07:22;5.50;;;1.75;;
60867;SDS011;46702;48.370;10.794;2023-10-13T13:09:54;3.78;;;1.80;;
60867;SDS011;46702;48.370;10.794;2023-10-13T13:12:23;4.03;;;1.77;;
60867;SDS011;46702;48.370;10.794;2023-10-13T13:14:50;3.22;;;1.77;;
60867;SDS011;46702;48.370;10.794;2023-10-13T13:17:20;7.30;;;2.20;;
60867;SDS011;46702;48.370;10.794;2023-10-13T13:19:46;5.57;;;1.90;;
60867;SDS011;46702;48.370;10.794;2023-10-13T13:22:12;4.30;;;1.83;;
60867;SDS011;46702;48.370;10.794;2023-10-13T13:24:38;3.15;;;1.67;;
60867;SDS011;46702;48.370;10.794;2023-10-13T13:27:11;4.55;;;1.90;;
60867;SDS011;46702;48.370;10.794;2023-10-13T13:29:44;4.97;;;1.95;;
60867;SDS011;46702;48.370;10.794;2023-10-13T13:32:10;4.75;;;1.80;;
60867;SDS011;46702;48.370;10.794;2023-10-13T13:34:53;4.45;;;2.25;;
60867;SDS011;46702;48.370;10.794;2023-10-13T13:37:22;4.38;;;2.10;;
60867;SDS011;46702;48.370;10.794;2023-10-13T13:39:47;4.25;;;1.75;;
60867;SDS011;46702;48.370;10.794;2023-10-13T13:42:13;4.25;;;1.83;;
60867;SDS011;46702;48.370;10.794;2023-10-13T13:44:43;2.15;;;1.63;;
60867;SDS011;46702;48.370;10.794;2023-10-13T13:47:11;5.15;;;2.47;;
60867;SDS011;46702;48.370;10.794;2023-10-13T13:49:41;4.93;;;1.85;;
60867;SDS011;46702;48.370;10.794;2023-10-13T13:52:18;6.70;;;2.05;;
60867;SDS011;46702;48.370;10.794;2023-10-13T13:54:53;5.38;;;1.85;;
60867;SDS011;46702;48.370;10.794;2023-10-13T13:57:18;4.22;;;2.25;;
60867;SDS011;46702;48.370;10.794;2023-10-13T13:59:44;5.70;;;2.60;;
60867;SDS011;46702;48.370;10.794;2023-10-13T14:02:10;8.18;;;2.70;;
60867;SDS011;46702;48.370;10.794;2023-10-13T14:04:47;5.47;;;2.10;;
60867;SDS011;46702;48.370;10.794;2023-10-13T14:07:15;4.03;;;2.05;;
60867;SDS011;46702;48.370;10.794;2023-10-13T14:09:44;4.25;;;2.05;;
60867;SDS011;46702;48.370;10.794;2023-10-13T14:12:10;7.20;;;2.30;;
60867;SDS011;46702;48.370;10.794;2023-10-13T14:14:55;3.70;;;2.17;;
60867;SDS011;46702;48.370;10.794;2023-10-13T14:17:21;4.75;;;2.00;;
60867;SDS011;46702;48.370;10.794;2023-10-13T14:20:00;5.60;;;2.30;;
60867;SDS011;46702;48.370;10.794;2023-10-13T14:22:40;3.90;;;1.95;;
60867;SDS011;46702;48.370;10.794;2023-10-13T14:25:06;3.22;;;1.92;;
60867;SDS011;46702;48.370;10.794;2023-10-13T14:27:34;2.92;;;1.77;;
60867;SDS011;46702;48.370;10.794;2023-10-13T14:30:01;3.53;;;1.80;;
60867;SDS011;46702;48.370;10.794;2023-10-13T14:32:27;4.25;;;1.98;;
60867;SDS011;46702;48.370;10.794;2023-10-13T14:34:53;5.72;;;2.30;;
60867;SDS011;46702;48.370;10.794;2023-10-13T14:37:20;2.85;;;1.90;;
60867;SDS011;46702;48.370;10.794;2023-10-13T14:39:52;2.83;;;2.00;;
60867;SDS011;46702;48.370;10.794;2023-10-13T14:42:21;4.55;;;2.17;;
60867;SDS011;46702;48.370;10.794;2023-10-13T14:44:51;2.38;;;1.83;;
60867;SDS011;46702;48.370;10.794;2023-10-13T14:47:23;5.25;;;2.13;;
60867;SDS011;46702;48.370;10.794;2023-10-13T14:49:58;9.63;;;2.43;;
60867;SDS011;46702;48.370;10.794;2023-10-13T14:52:28;3.85;;;2.05;;
60867;SDS011;46702;48.370;10.794;2023-10-13T14:54:57;4.13;;;1.92;;
60867;SDS011;46702;48.370;10.794;2023-10-13T14:57:23;5.88;;;2.45;;
60867;SDS011;46702;48.370;10.794;2023-10-13T14:59:53;4.88;;;1.80;;
60867;SDS011;46702;48.370;10.794;2023-10-13T15:02:19;5.50;;;2.22;;
60867;SDS011;46702;48.370;10.794;2023-10-13T15:04:49;4.72;;;2.17;;
60867;SDS011;46702;48.370;10.794;2023-10-13T15:07:15;5.47;;;2.53;;
60867;SDS011;46702;48.370;10.794;2023-10-13T15:09:43;5.05;;;2.28;;
60867;SDS011;46702;48.370;10.794;2023-10-13T15:12:12;6.38;;;2.60;;
60867;SDS011;46702;48.370;10.794;2023-10-13T15:14:38;5.57;;;2.40;;
60867;SDS011;46702;48.370;10.794;2023-10-13T15:17:07;3.25;;;1.90;;
60867;SDS011;46702;48.370;10.794;2023-10-13T15:19:34;9.20;;;2.30;;
60867;SDS011;46702;48.370;10.794;2023-10-13T15:22:07;4.97;;;2.40;;
60867;SDS011;46702;48.370;10.794;2023-10-13T15:24:41;7.35;;;2.40;;
60867;SDS011;46702;48.370;10.794;2023-10-13T15:27:22;9.52;;;2.50;;
60867;SDS011;46702;48.370;10.794;2023-10-13T15:29:48;5.45;;;2.33;;
60867;SDS011;46702;48.370;10.794;2023-10-13T15:32:15;4.60;;;2.28;;
60867;SDS011;46702;48.370;10.794;2023-10-13T15:35:00;9.75;;;2.88;;
60867;SDS011;46702;48.370;10.794;2023-10-13T15:37:25;4.93;;;3.13;;
60867;SDS011;46702;48.370;10.794;2023-10-13T15:39:52;7.88;;;2.95;;
60867;SDS011;46702;48.370;10.794;2023-10-13T15:42:18;7.45;;;3.35;;